Terminal Aerodrome Forecast
Issued by NWS Cleveland, OH

Home | Current Version | Previous Version | Graphics & Text | Print | Product List | Glossary On
Versions: 1 2 3 4 5 6 7 8 9 10 11 12 13
000
FTUS41 KCLE 251300 AAA
TAFCAK
TAF AMD
KCAK 251357Z 2514/2612 21015G25KT P6SM BKN070 OVC150
      TEMPO 2520/2522 4SM -TSRA BKN045CB OVC080
     FM252200 22015G25KT P6SM SCT050 OVC120
     FM260100 21010KT P6SM SCT050 BKN200=

USA.gov is the U.S. government's official web portal to all federal, state and local government web resources and services.